Time;durP1;ratioP1;P1;durP2;ratioP2;P2;SDS_P1;SDS_P2;PMS_P1;PMS_P2;Temp;Humidity;BMP_temperature;BMP_pressure;BME280_temperature;BME280_humidity;BME280_pressure;Samples;Min_cycle;Max_cycle;Signal;HPM_P1;HPM_P2
2022/08/27 00:00:42;;;;;;;15.25;1.95;;;19.50;1.00;;;;;;5025713;28;20212;-63
2022/08/27 00:03:09;;;;;;;4.18;1.60;;;19.50;1.00;;;;;;5046597;28;20228;-63
2022/08/27 00:05:36;;;;;;;4.90;1.83;;;19.40;1.00;;;;;;5036505;28;20677;-63
2022/08/27 00:08:04;;;;;;;3.53;1.50;;;19.20;1.00;;;;;;5053844;28;20987;-64
2022/08/27 00:10:32;;;;;;;6.20;1.50;;;19.40;1.00;;;;;;5047972;28;20207;-63
2022/08/27 00:13:00;;;;;;;7.25;1.40;;;19.50;1.00;;;;;;5055780;28;20326;-63
2022/08/27 00:15:28;;;;;;;5.32;1.67;;;19.40;1.00;;;;;;5042294;28;20212;-63
2022/08/27 00:17:55;;;;;;;8.82;1.75;;;19.40;1.00;;;;;;5039869;28;20320;-63
2022/08/27 00:20:25;;;;;;;8.93;1.80;;;19.40;1.00;;;;;;5056192;28;20192;-63
2022/08/27 00:22:52;;;;;;;4.35;1.48;;;19.40;1.00;;;;;;5030734;28;20919;-63
2022/08/27 00:25:20;;;;;;;8.70;1.38;;;19.40;1.00;;;;;;5061023;28;20697;-63
2022/08/27 00:27:48;;;;;;;3.72;1.40;;;19.40;1.00;;;;;;5043418;28;20211;-64
2022/08/27 00:30:17;;;;;;;7.05;1.98;;;19.40;1.00;;;;;;5045705;28;20208;-63
2022/08/27 00:32:44;;;;;;;4.38;1.63;;;19.20;1.00;;;;;;5037819;28;20196;-64
2022/08/27 00:35:13;;;;;;;2.65;1.23;;;20.20;1.00;;;;;;5062221;28;20284;-63
2022/08/27 00:37:39;;;;;;;6.07;1.70;;;19.40;1.00;;;;;;5037493;28;20236;-63
2022/08/27 00:40:10;;;;;;;7.93;1.85;;;19.40;1.00;;;;;;5063897;28;20200;-63
2022/08/27 00:42:36;;;;;;;4.25;1.77;;;19.40;1.00;;;;;;5048479;28;20223;-63
2022/08/27 00:45:06;;;;;;;5.95;1.67;;;19.30;1.00;;;;;;5042562;28;20703;-63
2022/08/27 00:47:45;;;;;;;1.95;1.13;;;19.40;1.00;;;;;;5056668;28;20238;-63
2022/08/27 00:50:15;;;;;;;2.97;1.33;;;19.40;1.00;;;;;;5063723;28;20211;-66
2022/08/27 00:52:46;;;;;;;7.47;1.70;;;19.30;1.00;;;;;;5039436;28;20919;-63
2022/08/27 00:55:16;;;;;;;5.97;1.58;;;19.00;1.00;;;;;;5062889;28;20212;-63
2022/08/27 00:57:45;;;;;;;5.95;2.00;;;19.20;1.00;;;;;;5046847;28;20205;-63
2022/08/27 01:00:17;;;;;;;5.85;1.65;;;19.30;1.00;;;;;;5043020;28;20708;-64
2022/08/27 01:02:45;;;;;;;8.25;1.92;;;19.20;1.00;;;;;;5048697;28;20229;-63
2022/08/27 01:05:15;;;;;;;6.00;1.90;;;19.20;1.00;;;;;;5057009;28;20233;-63
2022/08/27 01:07:46;;;;;;;4.65;1.40;;;19.20;1.00;;;;;;5036781;28;20232;-63
2022/08/27 01:10:18;;;;;;;9.10;2.25;;;19.20;1.00;;;;;;5060446;28;20212;-63
2022/08/27 01:12:45;;;;;;;3.67;1.60;;;19.20;1.00;;;;;;5048039;28;20570;-63
2022/08/27 01:15:16;;;;;;;9.88;1.60;;;19.20;1.00;;;;;;5030544;28;20216;-63
2022/08/27 01:17:45;;;;;;;5.43;1.48;;;19.20;1.00;;;;;;5058494;28;20208;-63
2022/08/27 01:20:17;;;;;;;5.35;1.48;;;19.20;1.00;;;;;;5040501;28;20383;-63
2022/08/27 01:22:52;;;;;;;4.68;1.48;;;19.20;1.00;;;;;;5040878;28;20666;-63
2022/08/27 01:25:22;;;;;;;4.40;1.60;;;19.20;1.00;;;;;;5061348;28;20219;-63
2022/08/27 01:27:49;;;;;;;6.65;1.63;;;19.20;1.00;;;;;;5058785;28;20224;-62
2022/08/27 01:30:20;;;;;;;8.77;1.75;;;17.80;1.00;;;;;;5013302;28;20212;-63
2022/08/27 01:32:47;;;;;;;7.10;1.33;;;19.30;1.00;;;;;;5060525;28;20212;-63
2022/08/27 01:35:16;;;;;;;5.00;1.90;;;19.30;1.00;;;;;;5044673;28;20666;-63
2022/08/27 01:37:46;;;;;;;5.97;1.60;;;19.20;1.00;;;;;;5035636;28;20686;-63
2022/08/27 01:40:13;;;;;;;6.13;1.73;;;19.20;1.00;;;;;;5052698;28;20196;-63
2022/08/27 01:42:44;;;;;;;5.68;1.40;;;19.20;1.00;;;;;;5060366;28;20201;-63
2022/08/27 01:45:13;;;;;;;9.63;3.88;;;19.20;1.00;;;;;;5023738;28;20220;-66
2022/08/27 01:47:41;;;;;;;4.65;1.75;;;19.20;1.00;;;;;;5056653;28;20227;-63
2022/08/27 01:50:11;;;;;;;7.47;2.08;;;19.10;1.00;;;;;;5041036;28;20315;-63
2022/08/27 01:52:37;;;;;;;3.05;1.35;;;19.10;1.00;;;;;;5059089;28;20980;-63
2022/08/27 01:55:06;;;;;;;13.15;1.73;;;19.00;1.00;;;;;;5032792;28;20282;-63
2022/08/27 01:57:34;;;;;;;5.43;1.63;;;19.20;1.00;;;;;;5056683;28;20648;-63
2022/08/27 02:00:02;;;;;;;4.93;1.20;;;19.20;1.00;;;;;;5053600;28;20685;-64
2022/08/27 02:02:29;;;;;;;3.78;1.45;;;19.20;1.00;;;;;;5039863;28;20232;-63
2022/08/27 02:04:56;;;;;;;6.68;2.47;;;;;;;;;;5053705;28;20193;-63
2022/08/27 02:07:23;;;;;;;5.95;1.73;;;19.20;1.00;;;;;;5047708;28;20229;-63
2022/08/27 02:09:50;;;;;;;6.03;1.60;;;19.20;1.00;;;;;;5038778;28;20203;-63
2022/08/27 02:12:17;;;;;;;4.47;2.10;;;19.10;1.00;;;;;;5053193;28;20866;-63
2022/08/27 02:14:44;;;;;;;3.95;1.35;;;19.10;1.00;;;;;;5053668;28;20188;-63
2022/08/27 02:17:12;;;;;;;6.93;1.70;;;19.10;1.00;;;;;;5038109;28;20214;-63
2022/08/27 02:19:39;;;;;;;7.30;2.30;;;19.10;1.00;;;;;;5056766;28;20221;-63
2022/08/27 02:22:06;;;;;;;6.28;1.70;;;19.10;1.00;;;;;;5046792;28;20208;-63
2022/08/27 02:24:33;;;;;;;6.53;1.38;;;19.30;1.00;;;;;;5030164;28;20201;-63
2022/08/27 02:27:00;;;;;;;8.10;1.67;;;19.10;1.00;;;;;;5053594;28;20697;-63
2022/08/27 02:29:27;;;;;;;5.25;1.45;;;19.20;1.00;;;;;;5053242;28;20200;-63
2022/08/27 02:31:54;;;;;;;2.72;1.40;;;19.10;1.00;;;;;;5041700;28;20793;-63
2022/08/27 02:34:22;;;;;;;4.18;1.30;;;19.10;1.00;;;;;;5055771;28;20212;-64
2022/08/27 02:36:49;;;;;;;3.75;1.35;;;19.30;1.00;;;;;;5043416;28;20200;-63
2022/08/27 02:39:16;;;;;;;4.32;1.52;;;19.10;1.00;;;;;;5043666;28;20227;-63
2022/08/27 02:41:43;;;;;;;5.88;1.58;;;19.30;1.00;;;;;;5044875;28;20204;-63
2022/08/27 02:44:10;;;;;;;6.78;1.63;;;19.10;1.00;;;;;;5061705;28;20200;-63
2022/08/27 02:46:37;;;;;;;4.53;1.33;;;19.10;1.00;;;;;;5041946;28;20224;-63
2022/08/27 02:49:05;;;;;;;6.28;1.33;;;19.20;1.00;;;;;;5058538;28;20613;-63
2022/08/27 02:51:33;;;;;;;9.07;1.75;;;19.20;1.00;;;;;;5045238;28;20297;-63
2022/08/27 02:54:00;;;;;;;6.00;1.77;;;19.30;1.00;;;;;;5062033;28;20188;-63
2022/08/27 02:56:27;;;;;;;5.15;1.50;;;19.10;1.00;;;;;;5032705;28;20211;-63
2022/08/27 02:58:54;;;;;;;10.13;2.10;;;19.10;1.00;;;;;;5057465;28;20212;-63
2022/08/27 03:01:21;;;;;;;3.03;1.40;;;19.10;1.00;;;;;;5044251;28;20228;-63
2022/08/27 03:03:48;;;;;;;8.82;1.52;;;19.10;1.00;;;;;;5056601;28;20713;-63
2022/08/27 03:06:15;;;;;;;4.22;1.60;;;20.00;1.00;;;;;;5057230;28;20200;-63
2022/08/27 03:08:43;;;;;;;3.80;1.70;;;19.10;1.00;;;;;;5047715;28;20208;-69
2022/08/27 03:11:11;;;;;;;3.22;1.40;;;19.30;1.00;;;;;;5035106;28;20196;-63
2022/08/27 03:13:38;;;;;;;7.20;2.05;;;19.10;1.00;;;;;;5055162;28;20270;-63
2022/08/27 03:16:06;;;;;;;4.10;1.85;;;19.10;1.00;;;;;;5062899;28;20204;-66
2022/08/27 03:18:32;;;;;;;9.25;2.88;;;19.00;1.00;;;;;;5040163;28;20215;-63
2022/08/27 03:21:00;;;;;;;3.72;1.98;;;19.10;1.00;;;;;;5057670;28;20331;-63
2022/08/27 03:23:31;;;;;;;5.07;1.60;;;19.00;1.00;;;;;;5046071;28;20201;-64
2022/08/27 03:26:02;;;;;;;6.70;1.30;;;19.10;1.00;;;;;;5062748;28;20198;-63
2022/08/27 03:28:32;;;;;;;4.43;1.65;;;19.10;1.00;;;;;;5037811;28;20981;-63
2022/08/27 03:31:01;;;;;;;3.67;1.90;;;19.10;1.00;;;;;;5051070;28;20208;-63
2022/08/27 03:33:29;;;;;;;5.35;1.67;;;19.10;1.00;;;;;;5042435;28;21029;-67
2022/08/27 03:35:56;;;;;;;7.65;1.95;;;19.00;1.00;;;;;;5050181;28;20227;-64
2022/08/27 03:38:23;;;;;;;4.00;1.40;;;19.10;1.00;;;;;;5046437;28;20208;-63
2022/08/27 03:40:50;;;;;;;8.02;1.80;;;18.90;1.00;;;;;;5057005;28;20993;-63
2022/08/27 03:43:21;;;;;;;9.20;1.88;;;19.10;1.00;;;;;;5037712;28;20205;-63
2022/08/27 03:45:49;;;;;;;5.57;1.42;;;19.20;1.00;;;;;;5055628;28;20203;-63
2022/08/27 03:48:17;;;;;;;5.75;1.60;;;;;;;;;;5055494;28;20281;-63
2022/08/27 03:50:46;;;;;;;7.70;1.70;;;19.00;1.00;;;;;;5039999;28;20205;-63
2022/08/27 03:53:14;;;;;;;4.82;1.70;;;19.00;1.00;;;;;;5027137;28;20200;-63
2022/08/27 03:55:41;;;;;;;2.75;1.33;;;19.00;1.00;;;;;;5059462;28;20200;-63
2022/08/27 03:58:08;;;;;;;7.88;2.00;;;;;;;;;;5021496;28;20327;-63
2022/08/27 04:00:37;;;;;;;7.30;1.80;;;18.00;1.00;;;;;;5042458;28;20230;-63
2022/08/27 04:03:04;;;;;;;4.18;1.33;;;19.10;1.00;;;;;;5056621;28;20247;-63
2022/08/27 04:05:31;;;;;;;5.65;1.80;;;18.90;1.00;;;;;;5044047;28;20212;-63
2022/08/27 04:07:58;;;;;;;6.88;1.52;;;18.90;1.00;;;;;;5050309;28;20585;-63
2022/08/27 04:10:26;;;;;;;9.45;2.08;;;18.80;1.00;;;;;;5060930;28;20195;-63
2022/08/27 04:12:53;;;;;;;6.13;1.63;;;19.20;1.00;;;;;;5057838;28;20201;-63
2022/08/27 04:15:20;;;;;;;6.65;1.42;;;18.90;1.00;;;;;;5029215;28;20234;-63
2022/08/27 04:17:48;;;;;;;3.70;1.40;;;18.80;1.00;;;;;;5061505;28;20205;-63
2022/08/27 04:20:15;;;;;;;2.22;1.35;;;19.00;1.00;;;;;;5039135;28;20223;-63
2022/08/27 04:22:42;;;;;;;5.43;1.50;;;18.90;1.00;;;;;;5057045;28;20223;-63
2022/08/27 04:25:09;;;;;;;5.07;1.80;;;18.90;1.00;;;;;;5057190;28;20203;-63
2022/08/27 04:27:36;;;;;;;4.40;1.17;;;18.80;1.00;;;;;;5058200;28;20250;-63
2022/08/27 04:30:04;;;;;;;8.80;2.08;;;18.90;1.00;;;;;;5019181;28;20205;-63
2022/08/27 04:32:30;;;;;;;4.68;1.50;;;18.80;1.00;;;;;;5055314;28;20193;-63
2022/08/27 04:35:00;;;;;;;3.38;1.70;;;18.90;1.00;;;;;;5059032;28;20877;-63
2022/08/27 04:37:31;;;;;;;5.20;1.83;;;18.90;1.00;;;;;;5037785;28;20216;-63
2022/08/27 04:39:58;;;;;;;4.60;1.40;;;18.90;1.00;;;;;;5061740;28;20196;-63
2022/08/27 04:42:25;;;;;;;5.40;1.55;;;18.90;1.00;;;;;;5061423;28;20191;-63
2022/08/27 04:44:53;;;;;;;2.28;1.25;;;19.00;1.00;;;;;;5034851;28;20211;-63
2022/08/27 04:47:20;;;;;;;5.47;1.52;;;18.80;1.00;;;;;;5060694;28;20273;-63
2022/08/27 04:49:47;;;;;;;4.50;1.40;;;19.70;1.00;;;;;;5060404;28;20253;-62
2022/08/27 04:52:16;;;;;;;6.75;1.70;;;18.80;1.00;;;;;;5045325;28;20860;-64
2022/08/27 04:54:43;;;;;;;9.23;1.73;;;18.90;1.00;;;;;;5053598;28;20739;-63
2022/08/27 04:57:10;;;;;;;5.40;1.75;;;18.80;1.00;;;;;;5064063;28;20295;-63
2022/08/27 04:59:37;;;;;;;9.23;1.77;;;18.80;1.00;;;;;;5058267;28;20197;-63
2022/08/27 05:02:07;;;;;;;7.10;2.47;;;19.00;1.00;;;;;;5033575;28;20207;-63
2022/08/27 05:04:36;;;;;;;9.98;1.70;;;18.90;1.00;;;;;;5016179;28;20955;-63
2022/08/27 05:07:03;;;;;;;6.03;1.80;;;18.80;1.00;;;;;;5001345;28;20223;-63
2022/08/27 05:09:31;;;;;;;4.18;1.40;;;18.80;1.00;;;;;;5009728;28;20198;-63
2022/08/27 05:11:58;;;;;;;4.93;1.77;;;18.80;1.00;;;;;;5011292;28;20226;-63
2022/08/27 05:14:28;;;;;;;3.60;1.52;;;18.60;1.00;;;;;;5018009;28;20743;-63
2022/08/27 05:16:56;;;;;;;5.43;2.20;;;18.80;1.00;;;;;;4995892;28;20208;-62
2022/08/27 05:19:23;;;;;;;4.15;1.70;;;18.80;1.00;;;;;;5015768;28;20683;-63
2022/08/27 05:21:52;;;;;;;4.68;1.55;;;18.80;1.00;;;;;;4995337;28;20949;-63
2022/08/27 05:24:19;;;;;;;7.05;1.98;;;18.80;1.00;;;;;;5005683;28;20230;-62
2022/08/27 05:26:48;;;;;;;8.82;1.85;;;18.80;1.00;;;;;;5008359;28;20218;-63
2022/08/27 05:29:15;;;;;;;8.48;1.60;;;18.80;1.00;;;;;;5005379;28;20599;-62
2022/08/27 05:31:42;;;;;;;5.18;1.30;;;18.90;1.00;;;;;;4985457;28;20245;-63
2022/08/27 05:34:10;;;;;;;6.88;1.80;;;18.70;1.00;;;;;;5013407;28;20228;-63
2022/08/27 05:36:39;;;;;;;7.88;1.70;;;18.70;1.00;;;;;;5014595;28;20208;-63
2022/08/27 05:39:06;;;;;;;7.63;1.90;;;18.70;1.00;;;;;;4991303;28;20722;-63
2022/08/27 05:41:34;;;;;;;5.38;2.15;;;18.70;1.00;;;;;;5007444;28;20287;-63
2022/08/27 05:44:04;;;;;;;6.75;1.48;;;19.30;1.00;;;;;;5000177;28;20216;-63
2022/08/27 05:46:32;;;;;;;7.93;1.67;;;;;;;;;;4988247;28;20230;-62
2022/08/27 05:49:00;;;;;;;3.90;1.75;;;18.80;1.00;;;;;;4992242;28;20791;-63
2022/08/27 05:51:29;;;;;;;13.27;2.95;;;18.70;1.00;;;;;;5020832;28;20195;-63
2022/08/27 05:53:58;;;;;;;5.93;1.67;;;18.90;1.00;;;;;;4997177;28;20229;-63
2022/08/27 05:56:27;;;;;;;9.25;1.60;;;18.80;1.00;;;;;;5002592;28;20225;-63
2022/08/27 06:01:43;;;;;;;3.20;1.67;;;18.70;1.00;;;;;;4997310;28;20215;-62
2022/08/27 06:04:10;;;;;;;2.97;1.23;;;18.90;1.00;;;;;;5026649;28;20228;-63
2022/08/27 06:06:38;;;;;;;7.57;3.00;;;18.80;1.00;;;;;;5052781;28;20216;-63
2022/08/27 06:09:06;;;;;;;6.65;1.92;;;18.70;1.00;;;;;;5026263;28;20589;-63
2022/08/27 06:11:33;;;;;;;3.75;1.42;;;18.70;1.00;;;;;;5046906;28;20298;-63
2022/08/27 06:14:01;;;;;;;5.63;1.67;;;18.70;1.00;;;;;;5045836;28;20204;-63
2022/08/27 06:16:28;;;;;;;6.35;1.50;;;;;;;;;;5026318;28;20404;-63
2022/08/27 06:18:57;;;;;;;10.77;2.10;;;18.70;1.00;;;;;;5039289;28;20224;-63
2022/08/27 06:21:25;;;;;;;9.75;1.88;;;18.90;1.00;;;;;;5050354;28;20222;-62
2022/08/27 06:23:52;;;;;;;3.53;1.25;;;18.70;1.00;;;;;;5047296;28;20231;-63
2022/08/27 06:26:20;;;;;;;6.10;1.50;;;18.80;1.00;;;;;;5030539;28;20593;-63
2022/08/27 06:28:47;;;;;;;5.07;1.80;;;18.70;1.00;;;;;;5036024;28;20232;-63
2022/08/27 06:31:16;;;;;;;5.63;1.90;;;18.80;1.00;;;;;;5019094;28;20232;-63
2022/08/27 06:33:44;;;;;;;6.55;2.08;;;18.80;1.00;;;;;;5029194;28;20686;-63
2022/08/27 06:36:15;;;;;;;9.77;2.13;;;18.80;1.00;;;;;;5041009;28;20193;-63
2022/08/27 06:38:42;;;;;;;5.90;1.80;;;;;;;;;;5030172;28;20224;-63
2022/08/27 06:41:11;;;;;;;12.18;2.22;;;18.90;1.00;;;;;;5036256;28;21140;-63
2022/08/27 06:43:39;;;;;;;5.95;1.60;;;19.30;1.00;;;;;;5020731;28;20219;-63
2022/08/27 06:46:08;;;;;;;4.03;1.30;;;18.90;1.00;;;;;;5037310;28;20223;-63
2022/08/27 06:48:35;;;;;;;8.48;1.65;;;19.00;1.00;;;;;;5011064;28;20228;-64
2022/08/27 06:51:08;;;;;;;7.43;2.00;;;16.60;1.00;;;;;;5030789;28;20302;-63
2022/08/27 06:53:36;;;;;;;6.70;2.08;;;19.20;99.90;;;;;;5027796;28;20224;-63
2022/08/27 06:56:04;;;;;;;7.50;1.90;;;18.70;99.90;;;;;;5000878;28;20231;-63
2022/08/27 06:58:32;;;;;;;5.35;1.80;;;19.10;99.90;;;;;;5034901;28;20220;-63
2022/08/27 07:00:58;;;;;;;11.07;1.85;;;19.30;99.90;;;;;;5036763;28;20236;-63
2022/08/27 07:03:25;;;;;;;7.38;2.15;;;19.20;99.90;;;;;;5009795;28;20997;-63
2022/08/27 07:05:52;;;;;;;7.50;1.80;;;19.20;99.90;;;;;;5037588;28;20216;-64
2022/08/27 07:08:19;;;;;;;6.05;2.28;;;19.30;99.90;;;;;;5037072;28;20219;-63
2022/08/27 07:10:47;;;;;;;10.20;1.45;;;19.30;99.90;;;;;;5017769;28;20606;-63
2022/08/27 07:13:14;;;;;;;6.85;1.90;;;19.40;99.90;;;;;;5046736;28;20293;-63
2022/08/27 07:15:41;;;;;;;8.23;2.22;;;19.20;99.90;;;;;;5052603;28;20216;-63
2022/08/27 07:18:08;;;;;;;11.18;1.98;;;19.20;99.90;;;;;;5012187;28;20236;-63
2022/08/27 07:20:35;;;;;;;6.75;2.00;;;19.20;99.90;;;;;;5048510;28;20208;-63
2022/08/27 07:23:02;;;;;;;4.63;1.77;;;19.10;99.90;;;;;;5028602;28;20219;-63
2022/08/27 07:25:30;;;;;;;5.25;1.58;;;19.40;99.90;;;;;;5038988;28;20205;-63
2022/08/27 07:27:59;;;;;;;13.07;1.80;;;19.30;99.90;;;;;;5024009;28;20323;-63
2022/08/27 07:30:27;;;;;;;8.57;1.92;;;;;;;;;;5048948;28;20448;-63
2022/08/27 07:32:54;;;;;;;7.43;2.00;;;19.30;99.90;;;;;;5021484;28;20316;-63
2022/08/27 07:35:21;;;;;;;12.57;2.00;;;19.30;99.90;;;;;;5024908;28;20205;-63
2022/08/27 07:37:48;;;;;;;9.43;2.92;;;19.40;99.90;;;;;;5024387;28;20239;-63
2022/08/27 07:40:16;;;;;;;12.27;2.17;;;19.70;99.90;;;;;;5035969;28;20230;-64
2022/08/27 07:45:30;;;;;;;6.15;1.70;;;19.60;1.00;;;;;;5039551;28;20313;-63
2022/08/27 07:47:57;;;;;;;3.55;1.40;;;19.50;1.00;;;;;;5023761;28;20247;-63
2022/08/27 07:50:24;;;;;;;9.75;2.20;;;19.70;1.00;;;;;;5019998;28;20216;-63
2022/08/27 07:52:51;;;;;;;6.00;1.92;;;19.30;1.00;;;;;;5039139;28;20249;-64
2022/08/27 07:55:18;;;;;;;11.45;1.88;;;19.40;1.00;;;;;;5055544;28;20603;-63
2022/08/27 07:57:46;;;;;;;8.77;1.90;;;19.50;63.80;;;;;;5035277;28;20220;-63
2022/08/27 08:00:14;;;;;;;7.10;1.73;;;20.70;99.90;;;;;;5032884;28;20200;-63
2022/08/27 08:02:46;;;;;;;8.90;2.28;;;19.70;1.00;;;;;;5052627;28;20228;-63
2022/08/27 08:05:14;;;;;;;10.40;2.03;;;19.40;99.90;;;;;;5038310;28;20232;-63
2022/08/27 08:07:40;;;;;;;14.40;2.08;;;19.60;1.00;;;;;;5013218;28;20240;-63
2022/08/27 08:10:10;;;;;;;7.97;1.52;;;19.80;99.90;;;;;;5032644;28;20522;-62
2022/08/27 08:12:37;;;;;;;14.07;2.63;;;19.90;99.90;;;;;;5037652;28;20235;-62
2022/08/27 08:15:06;;;;;;;6.90;1.60;;;19.80;1.00;;;;;;5024630;28;20224;-63
2022/08/27 08:17:33;;;;;;;7.45;1.73;;;19.50;1.00;;;;;;5048449;28;20315;-63
2022/08/27 08:20:01;;;;;;;8.80;1.75;;;19.60;1.00;;;;;;5025968;28;20357;-63
2022/08/27 08:22:28;;;;;;;10.38;1.70;;;19.60;1.00;;;;;;5025133;28;20227;-63
2022/08/27 08:24:55;;;;;;;12.98;2.50;;;19.40;1.00;;;;;;5022392;28;20466;-62
2022/08/27 08:27:23;;;;;;;10.75;2.05;;;19.70;63.60;;;;;;5034422;28;20248;-62
2022/08/27 08:29:50;;;;;;;12.60;2.80;;;19.70;1.00;;;;;;5037151;28;20235;-63
2022/08/27 08:32:19;;;;;;;8.90;1.95;;;19.70;99.90;;;;;;5025914;28;20646;-62
2022/08/27 08:34:46;;;;;;;11.60;2.25;;;19.60;1.00;;;;;;5042442;28;20220;-62
2022/08/27 08:37:14;;;;;;;7.57;1.73;;;19.90;99.90;;;;;;5005546;28;20228;-63
2022/08/27 08:39:41;;;;;;;16.55;1.83;;;19.70;1.00;;;;;;5025147;28;20256;-62
2022/08/27 08:42:20;;;;;;;8.98;1.77;;;19.70;1.00;;;;;;5044609;28;20611;-62
2022/08/27 08:44:52;;;;;;;7.75;1.92;;;20.00;1.00;;;;;;5021147;28;20227;-63
2022/08/27 08:47:21;;;;;;;9.93;2.40;;;;;;;;;;5029192;28;20834;-63
2022/08/27 08:49:54;;;;;;;8.23;2.33;;;19.80;1.00;;;;;;5036599;28;20237;-62
2022/08/27 08:52:40;;;;;;;10.00;1.95;;;19.80;1.00;;;;;;5041704;28;20920;-62
2022/08/27 08:55:14;;;;;;;13.50;2.28;;;20.00;1.00;;;;;;5018131;28;23858;-62
2022/08/27 08:57:50;;;;;;;15.88;2.30;;;19.70;1.00;;;;;;5036956;28;20250;-62
2022/08/27 09:00:18;;;;;;;10.00;2.00;;;19.50;1.00;;;;;;5031971;28;20203;-62
2022/08/27 09:02:51;;;;;;;14.57;1.67;;;19.70;1.00;;;;;;5033481;28;20231;-65
2022/08/27 09:05:18;;;;;;;6.97;1.92;;;19.80;1.00;;;;;;5028284;28;21427;-63
2022/08/27 09:07:53;;;;;;;5.95;1.77;;;19.80;1.00;;;;;;5042041;28;20228;-63
2022/08/27 09:10:28;;;;;;;6.68;2.00;;;19.90;1.00;;;;;;5014017;28;20761;-63
2022/08/27 09:13:00;;;;;;;20.30;4.10;;;20.00;99.90;;;;;;5044850;28;20247;-63
2022/08/27 09:15:29;;;;;;;13.93;2.10;;;20.10;1.00;;;;;;5044328;28;20460;-63
2022/08/27 09:18:05;;;;;;;5.50;1.67;;;20.70;1.00;;;;;;5015268;28;20256;-63
2022/08/27 09:20:34;;;;;;;7.30;2.03;;;20.10;1.00;;;;;;5044300;28;20755;-62
2022/08/27 09:23:10;;;;;;;8.27;2.03;;;19.90;1.00;;;;;;5042746;28;20192;-63
2022/08/27 09:25:40;;;;;;;8.90;1.92;;;19.90;1.00;;;;;;5012353;28;20204;-63
2022/08/27 09:29:14;;;;;;;5.05;1.50;;;19.90;99.90;;;;;;5044796;28;20201;-63
2022/08/27 09:31:00;;;;;;;13.00;1.85;;;20.00;1.00;;;;;;5043025;28;20287;-63
2022/08/27 09:33:27;;;;;;;6.75;2.08;;;;;;;;;;5013742;28;21435;-62
2022/08/27 09:35:54;;;;;;;6.72;1.50;;;20.00;1.00;;;;;;5035260;28;20209;-63
2022/08/27 09:38:28;;;;;;;5.88;1.25;;;20.10;1.00;;;;;;5022794;28;20217;-63
2022/08/27 09:40:58;;;;;;;7.72;1.73;;;20.10;99.90;;;;;;4997705;28;20224;-63
2022/08/27 09:43:28;;;;;;;8.38;1.88;;;19.90;1.00;;;;;;5031017;28;20228;-63
2022/08/27 09:45:58;;;;;;;6.57;1.67;;;19.80;99.90;;;;;;5037591;28;20298;-63
2022/08/27 09:48:27;;;;;;;10.52;2.92;;;20.00;99.90;;;;;;5033854;28;20323;-63
2022/08/27 09:50:56;;;;;;;12.48;1.55;;;20.10;99.90;;;;;;5029676;28;20624;-63
2022/08/27 09:53:28;;;;;;;17.95;1.75;;;20.20;99.90;;;;;;5034684;28;22248;-63
2022/08/27 09:55:58;;;;;;;4.95;1.30;;;20.10;1.00;;;;;;5014481;28;20273;-63
2022/08/27 09:58:29;;;;;;;8.07;2.22;;;20.20;92.40;;;;;;5028637;28;20200;-63
2022/08/27 10:01:02;;;;;;;7.30;1.80;;;20.20;99.90;;;;;;5043385;28;20251;-62
2022/08/27 10:03:29;;;;;;;7.10;1.67;;;20.10;1.00;;;;;;5040734;28;20244;-63
2022/08/27 10:05:56;;;;;;;6.93;1.42;;;20.20;1.00;;;;;;5028826;28;20212;-62
2022/08/27 10:08:30;;;;;;;4.07;1.50;;;20.10;99.90;;;;;;5045748;28;20204;-63
2022/08/27 10:10:59;;;;;;;9.43;2.28;;;20.10;99.90;;;;;;5044297;28;20690;-63
2022/08/27 10:13:32;;;;;;;4.13;1.80;;;20.40;1.00;;;;;;5018719;28;20200;-63
2022/08/27 10:16:37;;;;;;;9.40;1.52;;;20.30;1.00;;;;;;5053358;28;20319;-63
2022/08/27 10:19:16;;;;;;;4.93;1.40;;;20.40;1.00;;;;;;5039917;28;20207;-63
2022/08/27 10:21:51;;;;;;;5.93;1.60;;;20.40;99.90;;;;;;5030717;28;20220;-63
2022/08/27 10:24:31;;;;;;;6.85;1.25;;;20.40;1.00;;;;;;5051730;28;20192;-63
2022/08/27 10:27:07;;;;;;;7.70;2.22;;;20.40;99.90;;;;;;5021446;28;20200;-63
2022/08/27 10:29:42;;;;;;;5.50;1.70;;;20.60;99.90;;;;;;5033411;28;20239;-63
2022/08/27 10:32:24;;;;;;;8.63;1.60;;;20.40;1.00;;;;;;5051920;28;20196;-63
2022/08/27 10:34:58;;;;;;;8.20;1.42;;;20.40;1.00;;;;;;5028451;28;20282;-62
2022/08/27 10:37:34;;;;;;;7.50;1.92;;;20.40;1.00;;;;;;5038548;28;20693;-62
2022/08/27 10:40:10;;;;;;;10.43;1.80;;;20.70;22.60;;;;;;5056431;28;20201;-63
2022/08/27 10:42:42;;;;;;;11.40;1.90;;;20.40;99.90;;;;;;5012782;28;20204;-63
2022/08/27 10:45:17;;;;;;;8.40;1.70;;;20.50;99.90;;;;;;5040616;28;20208;-63
2022/08/27 10:47:59;;;;;;;8.00;2.40;;;20.50;1.00;;;;;;5039399;28;23026;-60
2022/08/27 10:50:32;;;;;;;21.38;2.17;;;20.50;1.00;;;;;;5029712;28;20239;-62
2022/08/27 10:53:04;;;;;;;11.43;1.45;;;20.60;1.00;;;;;;5041257;28;20714;-62
2022/08/27 10:55:36;;;;;;;10.93;1.77;;;20.50;1.00;;;;;;5038890;28;20197;-62
2022/08/27 10:58:35;;;;;;;7.82;1.50;;;20.50;1.00;;;;;;5027270;28;20197;-62
2022/08/27 11:01:11;;;;;;;5.35;1.42;;;21.30;99.90;;;;;;5046648;28;20197;-63
2022/08/27 11:03:46;;;;;;;8.77;2.00;;;20.50;99.90;;;;;;5040653;28;20243;-63
2022/08/27 11:06:22;;;;;;;8.50;1.52;;;20.50;99.90;;;;;;5031724;28;20220;-63
2022/08/27 11:08:53;;;;;;;5.78;1.40;;;20.60;1.00;;;;;;5039559;28;20204;-62
2022/08/27 11:11:33;;;;;;;6.38;1.52;;;20.70;99.90;;;;;;5042780;28;20196;-63
2022/08/27 11:14:01;;;;;;;12.75;1.67;;;20.70;99.90;;;;;;5017232;28;20245;-63
2022/08/27 11:16:35;;;;;;;6.35;1.48;;;20.60;99.90;;;;;;5048875;28;20208;-62
2022/08/27 11:19:11;;;;;;;4.75;1.52;;;20.70;99.90;;;;;;5030875;28;20201;-62
2022/08/27 11:21:44;;;;;;;8.27;1.75;;;20.70;99.90;;;;;;5038607;28;20239;-62
2022/08/27 11:24:21;;;;;;;11.77;1.85;;;20.90;1.00;;;;;;5025365;28;20208;-63
2022/08/27 11:26:55;;;;;;;3.83;1.33;;;20.90;26.60;;;;;;5052266;28;20291;-62
2022/08/27 11:29:26;;;;;;;3.90;1.20;;;20.70;51.30;;;;;;5017880;28;20220;-62
2022/08/27 11:31:58;;;;;;;8.30;1.60;;;20.70;99.90;;;;;;5041346;28;20205;-62
2022/08/27 11:34:33;;;;;;;6.10;1.77;;;20.80;99.90;;;;;;5046956;28;20199;-62
2022/08/27 11:37:15;;;;;;;8.75;1.88;;;20.60;1.00;;;;;;5015074;28;20231;-62
2022/08/27 11:40:00;;;;;;;6.25;1.45;;;20.60;99.90;;;;;;5021412;28;20251;-62
2022/08/27 11:42:37;;;;;;;4.10;1.42;;;20.50;50.40;;;;;;5036651;28;20205;-62
2022/08/27 11:45:09;;;;;;;19.60;1.83;;;20.70;99.90;;;;;;5016264;28;20209;-62
2022/08/27 11:47:37;;;;;;;4.78;1.52;;;20.60;99.90;;;;;;5051812;28;20230;-61
2022/08/27 11:50:07;;;;;;;4.25;1.75;;;20.60;64.60;;;;;;5041033;28;20216;-62
2022/08/27 11:52:38;;;;;;;6.53;2.05;;;20.60;40.70;;;;;;5035791;28;20655;-62
2022/08/27 11:55:24;;;;;;;5.65;1.48;;;20.60;1.00;;;;;;5033341;28;20200;-62
2022/08/27 11:58:09;;;;;;;6.03;1.20;;;20.90;1.00;;;;;;5042939;28;20197;-62
2022/08/27 12:00:38;;;;;;;5.50;1.30;;;20.50;1.00;;;;;;5034381;28;20208;-62
2022/08/27 12:03:08;;;;;;;6.00;1.63;;;20.40;1.00;;;;;;5042538;28;20239;-62
2022/08/27 12:05:42;;;;;;;5.13;1.50;;;20.80;1.00;;;;;;5035657;28;20200;-62
2022/08/27 12:08:25;;;;;;;11.05;1.90;;;20.60;1.00;;;;;;5026151;28;20756;-62
2022/08/27 12:11:10;;;;;;;9.07;1.52;;;20.50;1.00;;;;;;5033048;28;20783;-62
2022/08/27 12:13:43;;;;;;;6.88;1.60;;;20.50;23.30;;;;;;5051062;28;20201;-62
2022/08/27 12:16:24;;;;;;;7.28;2.13;;;20.50;23.30;;;;;;5009164;28;20205;-62
2022/08/27 12:19:01;;;;;;;5.57;1.40;;;20.50;1.70;;;;;;5048029;28;20323;-61
2022/08/27 12:21:40;;;;;;;3.85;1.27;;;20.80;1.00;;;;;;5041022;28;20212;-62
2022/08/27 12:24:25;;;;;;;8.30;1.75;;;20.70;1.00;;;;;;5028922;28;20212;-62
2022/08/27 12:26:58;;;;;;;7.10;2.42;;;20.80;1.00;;;;;;5023317;28;20228;-62
2022/08/27 12:29:33;;;;;;;10.00;1.67;;;20.90;1.00;;;;;;5026055;28;20200;-62
2022/08/27 12:32:09;;;;;;;7.82;1.40;;;20.90;1.00;;;;;;5038137;28;21889;-62
2022/08/27 12:34:44;;;;;;;4.78;1.40;;;20.80;1.00;;;;;;5052845;28;20203;-64
2022/08/27 12:37:12;;;;;;;4.63;1.30;;;20.90;1.00;;;;;;5035218;28;20273;-63
2022/08/27 12:39:43;;;;;;;5.57;1.40;;;21.10;1.00;;;;;;5028193;28;21067;-63
2022/08/27 12:42:13;;;;;;;3.30;1.35;;;20.90;1.00;;;;;;5023725;28;20301;-63
2022/08/27 12:44:41;;;;;;;6.32;1.77;;;20.80;1.00;;;;;;5019828;28;20251;-63
2022/08/27 12:47:12;;;;;;;5.38;1.48;;;21.00;1.00;;;;;;5031765;28;20212;-63
2022/08/27 12:49:45;;;;;;;7.07;1.83;;;20.90;1.00;;;;;;5046937;28;20224;-63
2022/08/27 12:52:29;;;;;;;3.55;1.67;;;20.90;1.00;;;;;;5038648;28;21780;-63
2022/08/27 12:55:09;;;;;;;7.88;1.52;;;21.10;1.00;;;;;;5023134;28;20685;-63
2022/08/27 12:57:43;;;;;;;9.43;1.38;;;22.70;1.00;;;;;;5049059;28;20212;-62
2022/08/27 13:00:18;;;;;;;5.53;1.70;;;20.60;1.00;;;;;;5027665;28;20677;-63
2022/08/27 13:03:09;;;;;;;5.82;1.83;;;20.40;1.00;;;;;;5037866;28;20718;-63
2022/08/27 13:05:38;;;;;;;6.55;1.45;;;20.20;1.00;;;;;;5044780;28;20208;-62
2022/08/27 13:08:05;;;;;;;3.60;1.15;;;20.40;1.00;;;;;;5044435;28;20934;-63
2022/08/27 13:10:32;;;;;;;10.98;1.85;;;20.40;1.00;;;;;;5016435;28;20263;-62
2022/08/27 13:13:08;;;;;;;5.57;1.83;;;20.40;1.00;;;;;;5032011;28;20221;-62
2022/08/27 13:15:43;;;;;;;7.53;2.20;;;20.20;1.00;;;;;;5026134;28;20867;-62